createdAt,value
2018-07-05T00:02:00.615Z,89.00
2018-07-05T00:05:17.170Z,89.03
2018-07-05T00:08:31.345Z,89.59
2018-07-05T00:11:49.257Z,89.56
2018-07-05T00:15:09.472Z,89.40
2018-07-05T00:18:23.904Z,89.86
2018-07-05T00:21:42.792Z,88.93
2018-07-05T00:25:00.621Z,89.15
2018-07-05T00:28:18.395Z,88.18
2018-07-05T00:31:33.866Z,89.01
2018-07-05T00:34:48.553Z,88.42
2018-07-05T00:38:09.681Z,89.60
2018-07-05T00:41:24.848Z,89.25
2018-07-05T00:48:07.336Z,89.53
2018-07-05T00:51:21.567Z,90.01
2018-07-05T00:54:48.800Z,89.13
2018-07-05T00:58:08.669Z,89.85
2018-07-05T01:01:22.892Z,89.80
2018-07-05T01:04:37.530Z,89.44
2018-07-05T01:07:57.553Z,89.58
2018-07-05T01:11:11.991Z,89.64
2018-07-05T01:14:26.306Z,89.02
2018-07-05T01:17:40.576Z,89.63
2018-07-05T01:21:05.528Z,89.15
2018-07-05T01:24:19.756Z,89.08
2018-07-05T01:27:39.751Z,89.07
2018-07-05T01:30:54.013Z,89.00
2018-07-05T01:34:08.331Z,88.98
2018-07-05T01:37:26.358Z,89.97
2018-07-05T01:40:45.913Z,89.82
2018-07-05T01:44:05.861Z,89.44
2018-07-05T01:47:27.261Z,89.11
2018-07-05T01:50:41.567Z,89.39
2018-07-05T01:53:57.993Z,88.67
2018-07-05T01:57:12.305Z,88.21
2018-07-05T02:00:26.701Z,88.91
2018-07-05T02:03:46.768Z,89.18
2018-07-05T02:07:01.049Z,88.64
2018-07-05T02:10:19.746Z,89.08
2018-07-05T02:13:41.270Z,90.18
2018-07-05T02:16:56.948Z,90.82
2018-07-05T02:20:15.806Z,91.38
2018-07-05T02:23:35.264Z,91.45
2018-07-05T02:26:51.739Z,91.91
2018-07-05T02:30:06.043Z,91.50
2018-07-05T02:33:21.257Z,91.77
2018-07-05T02:36:39.045Z,91.07
2018-07-05T02:39:53.318Z,90.83
2018-07-05T02:43:09.558Z,90.73
2018-07-05T02:46:29.686Z,90.41
2018-07-05T02:49:46.195Z,89.67
2018-07-05T02:53:06.172Z,89.73
2018-07-05T02:56:20.359Z,89.74
2018-07-05T02:59:34.864Z,90.31
2018-07-05T03:02:51.645Z,90.21
2018-07-05T03:06:09.442Z,90.57
2018-07-05T03:09:23.741Z,90.05
2018-07-05T03:12:38.140Z,89.83
2018-07-05T03:15:56.191Z,90.35
2018-07-05T03:19:15.023Z,88.91
2018-07-05T03:22:35.158Z,89.43
2018-07-05T03:25:53.023Z,89.69
2018-07-05T03:29:07.217Z,89.39
2018-07-05T03:32:21.428Z,88.49
2018-07-05T03:35:39.104Z,88.65
2018-07-05T03:38:54.381Z,88.96
2018-07-05T03:42:10.834Z,88.73
2018-07-05T03:45:31.489Z,88.28
2018-07-05T03:48:51.738Z,87.68
2018-07-05T03:52:12.234Z,86.90
2018-07-05T03:55:27.450Z,87.17
2018-07-05T03:58:41.754Z,85.49
2018-07-05T04:02:00.260Z,85.61
2018-07-05T04:05:15.933Z,85.98
2018-07-05T04:08:30.353Z,81.53
2018-07-05T04:11:51.213Z,76.16
2018-07-05T04:15:09.074Z,72.88
2018-07-05T04:18:33.081Z,67.92
2018-07-05T04:21:50.785Z,63.23
2018-07-05T04:25:11.103Z,59.57
2018-07-05T04:28:28.080Z,56.25
2018-07-05T04:31:42.265Z,53.84
2018-07-05T04:35:00.453Z,51.55
2018-07-05T04:38:16.881Z,52.33
2018-07-05T04:41:39.890Z,59.62
2018-07-05T04:44:57.543Z,60.72
2018-07-05T04:48:11.812Z,55.93
2018-07-05T04:51:27.231Z,50.55
2018-07-05T04:54:48.218Z,48.17
2018-07-05T04:58:02.517Z,45.33
2018-07-05T05:01:17.849Z,42.33
2018-07-05T05:04:36.349Z,40.58
2018-07-05T05:07:54.405Z,40.77
2018-07-05T05:11:13.092Z,40.26
2018-07-05T05:14:29.266Z,40.07
2018-07-05T05:17:43.619Z,40.00
2018-07-05T05:20:57.836Z,40.27
2018-07-05T05:24:17.872Z,38.51
2018-07-05T05:27:37.995Z,38.01
2018-07-05T05:30:56.456Z,37.79
2018-07-05T05:34:22.206Z,35.68
2018-07-05T05:37:36.513Z,35.32
2018-07-05T05:41:00.004Z,35.28
2018-07-05T05:44:24.422Z,34.77
2018-07-05T05:47:44.356Z,36.39
2018-07-05T05:50:58.795Z,38.05
2018-07-05T05:54:13.019Z,37.67
2018-07-05T05:57:38.273Z,39.50
2018-07-05T06:01:00.421Z,36.98
2018-07-05T06:04:22.581Z,33.64
2018-07-05T06:07:45.995Z,32.93
2018-07-05T06:11:07.074Z,32.85
2018-07-05T06:14:26.978Z,32.37
2018-07-05T06:17:46.986Z,33.44
2018-07-05T06:21:07.061Z,31.76
2018-07-05T06:24:32.202Z,30.91
2018-07-05T06:27:53.159Z,31.10
2018-07-05T06:31:07.370Z,34.43
2018-07-05T06:34:30.787Z,36.63
2018-07-05T06:37:49.089Z,39.00
2018-07-05T06:41:04.364Z,41.61
2018-07-05T06:44:19.587Z,40.69
2018-07-05T06:47:34.116Z,40.10
2018-07-05T06:50:56.609Z,40.80
2018-07-05T06:54:17.723Z,38.45
2018-07-05T06:57:38.857Z,39.98
2018-07-05T07:00:53.159Z,40.19
2018-07-05T07:04:18.525Z,43.95
2018-07-05T07:07:33.750Z,43.14
2018-07-05T07:10:48.170Z,40.32
2018-07-05T07:14:03.431Z,41.60
2018-07-05T07:17:23.522Z,42.01
2018-07-05T07:20:44.466Z,44.02
2018-07-05T07:23:58.782Z,47.18
2018-07-05T07:27:14.087Z,49.36
2018-07-05T07:30:33.180Z,49.12
2018-07-05T07:33:48.882Z,50.67
2018-07-05T07:37:03.061Z,49.30
2018-07-05T07:43:33.344Z,48.42
2018-07-05T07:46:34.789Z,45.95
2018-07-05T07:49:42.171Z,44.92
2018-07-05T07:52:44.113Z,45.56
2018-07-05T07:55:47.166Z,46.91
2018-07-05T07:58:50.198Z,46.41
2018-07-05T08:01:52.118Z,48.17
2018-07-05T08:04:56.158Z,51.11
2018-07-05T08:08:00.221Z,47.63
2018-07-05T08:11:23.053Z,49.00
2018-07-05T08:14:26.514Z,50.67
2018-07-05T08:17:29.436Z,51.41
2018-07-05T08:20:32.412Z,48.81
2018-07-05T08:23:36.444Z,48.76
2018-07-05T08:26:39.949Z,46.64
2018-07-05T08:29:41.901Z,47.96
2018-07-05T08:32:47.846Z,46.72
2018-07-05T08:35:51.866Z,49.49
2018-07-05T08:38:55.891Z,49.32
2018-07-05T08:41:57.963Z,49.67
2018-07-05T08:45:00.987Z,50.12
2018-07-05T08:48:04.936Z,46.67
2018-07-05T08:51:06.917Z,42.89
2018-07-05T08:54:09.869Z,42.04
2018-07-05T08:57:12.990Z,43.84
2018-07-05T09:00:15.985Z,47.65
2018-07-05T09:03:17.916Z,48.30
2018-07-05T09:06:19.932Z,47.74
2018-07-05T09:09:22.901Z,47.73
2018-07-05T09:12:25.842Z,47.15
2018-07-05T09:15:27.758Z,44.81
2018-07-05T09:18:30.865Z,47.24
2018-07-05T09:21:39.658Z,46.24
2018-07-05T09:24:42.653Z,46.83
2018-07-05T09:27:49.106Z,46.95
2018-07-05T09:30:51.132Z,45.72
2018-07-05T09:33:53.222Z,47.28
2018-07-05T09:36:56.261Z,45.68
2018-07-05T09:40:02.964Z,46.71
2018-07-05T09:43:05.879Z,46.48
2018-07-05T09:46:08.162Z,44.78
2018-07-05T09:49:11.253Z,45.32
2018-07-05T09:52:13.250Z,44.49
2018-07-05T09:55:15.184Z,46.46
2018-07-05T09:58:17.130Z,45.37
2018-07-05T10:01:19.057Z,45.06
2018-07-05T10:04:22.022Z,46.77
2018-07-05T10:07:24.550Z,47.67
2018-07-05T10:10:28.535Z,47.03
2018-07-05T10:13:30.729Z,47.97
2018-07-05T10:16:34.614Z,46.06
2018-07-05T10:19:36.558Z,47.92
2018-07-05T10:22:38.600Z,48.40
2018-07-05T10:25:40.094Z,49.94
2018-07-05T10:28:55.475Z,46.28
2018-07-05T10:32:09.723Z,46.82
2018-07-05T10:35:12.681Z,47.88
2018-07-05T10:38:15.166Z,47.80
2018-07-05T10:41:29.482Z,47.67
2018-07-05T10:44:44.801Z,48.11
2018-07-05T10:47:59.336Z,47.80
2018-07-05T10:51:14.807Z,48.99
2018-07-05T10:54:29.249Z,50.69
2018-07-05T10:57:44.570Z,49.29
2018-07-05T11:00:58.968Z,48.50
2018-07-05T11:04:13.323Z,47.41
2018-07-05T11:07:38.756Z,49.98
2018-07-05T11:10:58.782Z,49.04
2018-07-05T11:14:13.325Z,47.97
2018-07-05T11:17:31.334Z,50.05
2018-07-05T11:20:45.649Z,48.76
2018-07-05T11:23:59.925Z,47.11
2018-07-05T11:27:14.115Z,47.84
2018-07-05T11:30:30.361Z,47.29
2018-07-05T11:33:44.534Z,48.46
2018-07-05T11:36:59.789Z,46.36
2018-07-05T11:40:16.109Z,44.79
2018-07-05T11:43:36.042Z,45.35
2018-07-05T11:46:52.316Z,44.39
2018-07-05T11:50:07.606Z,44.31
2018-07-05T11:53:32.590Z,45.48
2018-07-05T11:56:46.870Z,47.00
2018-07-05T12:00:01.347Z,45.80
2018-07-05T12:03:15.634Z,44.16
2018-07-05T12:06:32.004Z,45.19
2018-07-05T12:09:47.239Z,44.16
2018-07-05T12:13:08.394Z,46.93
2018-07-05T12:16:22.691Z,45.68
2018-07-05T12:19:37.955Z,46.02
2018-07-05T12:22:57.912Z,47.72
2018-07-05T12:26:14.279Z,47.00
2018-07-05T12:29:28.656Z,44.89
2018-07-05T12:32:43.078Z,46.20
2018-07-05T12:35:58.365Z,45.89
2018-07-05T12:39:13.594Z,45.82
2018-07-05T12:42:28.870Z,46.18
2018-07-05T12:45:44.133Z,47.58
2018-07-05T12:48:58.377Z,47.22
2018-07-05T12:52:23.175Z,47.21
2018-07-05T12:55:44.610Z,44.81
2018-07-05T12:59:00.073Z,42.88
2018-07-05T13:02:14.571Z,44.76
2018-07-05T13:05:28.775Z,43.38
2018-07-05T13:08:43.133Z,43.15
2018-07-05T13:11:59.581Z,43.53
2018-07-05T13:15:20.543Z,43.42
2018-07-05T13:18:40.483Z,44.73
2018-07-05T13:21:54.886Z,44.21
2018-07-05T13:25:14.957Z,48.79
2018-07-05T13:28:31.328Z,54.11
2018-07-05T13:31:45.718Z,59.21
2018-07-05T13:35:01.587Z,52.30
2018-07-05T13:38:16.927Z,60.98
2018-07-05T13:41:31.220Z,68.66
2018-07-05T13:44:45.660Z,74.57
2018-07-05T13:48:00.290Z,77.07
2018-07-05T13:51:15.811Z,82.35
2018-07-05T13:54:30.043Z,83.57
2018-07-05T13:57:50.936Z,83.06
2018-07-05T14:01:05.598Z,82.13
2018-07-05T14:04:25.763Z,79.36
2018-07-05T14:07:41.226Z,77.82
2018-07-05T14:11:01.274Z,77.23
2018-07-05T14:14:22.403Z,78.89
2018-07-05T14:17:42.391Z,76.97
2018-07-05T14:20:56.696Z,75.35
2018-07-05T14:24:11.059Z,74.62
2018-07-05T14:27:26.412Z,68.20
2018-07-05T14:30:41.637Z,67.28
2018-07-05T14:33:55.966Z,66.28
2018-07-05T14:37:10.311Z,65.91
2018-07-05T14:40:24.671Z,63.74
2018-07-05T14:43:39.200Z,61.12
2018-07-05T14:46:54.863Z,62.17
2018-07-05T14:50:09.050Z,63.61
2018-07-05T14:53:23.390Z,65.06
2018-07-05T14:56:37.696Z,65.29
2018-07-05T14:59:52.022Z,65.78
2018-07-05T15:03:06.480Z,63.40
2018-07-05T15:06:20.775Z,64.92
2018-07-05T15:09:41.795Z,64.15
2018-07-05T15:12:56.077Z,64.65
2018-07-05T15:16:16.132Z,67.59
2018-07-05T15:19:30.358Z,65.77
2018-07-05T15:22:44.597Z,65.34
2018-07-05T15:26:05.692Z,66.19
2018-07-05T15:29:19.847Z,67.83
2018-07-05T15:32:34.192Z,68.94
2018-07-05T15:35:48.511Z,67.74
2018-07-05T15:39:08.557Z,70.25
2018-07-05T15:42:22.928Z,74.21
2018-07-05T15:45:37.254Z,77.03
2018-07-05T15:48:51.628Z,79.03
2018-07-05T15:52:06.911Z,78.13
2018-07-05T15:55:27.058Z,76.68
2018-07-05T15:58:42.439Z,74.70
2018-07-05T16:01:56.689Z,74.32
2018-07-05T16:05:10.889Z,73.34
2018-07-05T16:08:25.205Z,74.37
2018-07-05T16:11:39.518Z,74.10
2018-07-05T16:14:53.818Z,72.09
2018-07-05T16:18:08.149Z,70.62
2018-07-05T16:21:22.418Z,67.74
2018-07-05T16:24:36.735Z,69.24
2018-07-05T16:27:51.042Z,69.41
2018-07-05T16:31:06.489Z,69.81
2018-07-05T16:34:20.823Z,67.35
2018-07-05T16:37:34.997Z,65.30
2018-07-05T16:40:49.270Z,66.55
2018-07-05T16:44:04.511Z,67.24
2018-07-05T16:47:18.794Z,69.06
2018-07-05T16:50:32.972Z,69.46
2018-07-05T16:53:47.235Z,68.86
2018-07-05T16:57:01.487Z,69.94
2018-07-05T17:00:15.743Z,68.54
2018-07-05T17:03:35.752Z,68.33
2018-07-05T17:06:50.142Z,66.21
2018-07-05T17:10:04.434Z,68.99
2018-07-05T17:13:19.807Z,67.85
2018-07-05T17:16:39.986Z,67.80
2018-07-05T17:19:54.365Z,67.31
2018-07-05T17:23:09.693Z,65.20
2018-07-05T17:26:24.993Z,62.98
2018-07-05T17:29:39.260Z,65.76
2018-07-05T17:32:53.631Z,66.83
2018-07-05T17:36:13.712Z,65.81
2018-07-05T17:39:28.019Z,69.12
2018-07-05T17:42:43.496Z,70.92
2018-07-05T17:45:57.736Z,73.35
2018-07-05T17:49:17.797Z,72.98
2018-07-05T17:52:32.106Z,71.97
2018-07-05T17:55:47.540Z,71.20
2018-07-05T17:59:01.838Z,70.54
2018-07-05T18:02:16.161Z,70.35
2018-07-05T18:05:31.472Z,71.17
2018-07-05T18:08:45.718Z,72.50
2018-07-05T18:12:05.708Z,73.33
2018-07-05T18:15:20.591Z,73.94
2018-07-05T18:18:34.910Z,73.73
2018-07-05T18:21:49.230Z,73.51
2018-07-05T18:25:03.472Z,74.48
2018-07-05T18:28:17.859Z,75.18
2018-07-05T18:31:37.834Z,76.27
2018-07-05T18:34:52.261Z,76.88
2018-07-05T18:38:06.624Z,77.65
2018-07-05T18:41:20.973Z,78.06
2018-07-05T18:44:35.431Z,77.67
2018-07-05T18:47:55.358Z,78.34
2018-07-05T18:51:09.718Z,78.20
2018-07-05T18:54:25.032Z,77.83
2018-07-05T18:57:39.220Z,78.18
2018-07-05T19:00:53.667Z,77.61
2018-07-05T19:04:07.887Z,78.25
2018-07-05T19:07:23.150Z,78.56
2018-07-05T19:10:43.283Z,78.93
2018-07-05T19:14:03.517Z,79.11
2018-07-05T19:17:17.868Z,78.49
2018-07-05T19:20:32.153Z,78.28
2018-07-05T19:23:52.185Z,77.68
2018-07-05T19:27:12.317Z,77.57
2018-07-05T19:30:32.428Z,76.63
2018-07-05T19:33:46.729Z,77.40
2018-07-05T19:37:01.085Z,79.91
2018-07-05T19:40:15.437Z,79.80
2018-07-05T19:43:29.841Z,80.57
2018-07-05T19:46:44.054Z,80.94
2018-07-05T19:49:58.254Z,81.71
2018-07-05T19:53:18.450Z,82.62
2018-07-05T19:56:33.757Z,84.13
2018-07-05T19:59:49.070Z,84.09
2018-07-05T20:03:03.613Z,84.28
2018-07-05T20:06:23.957Z,84.00
2018-07-05T20:09:38.382Z,83.54
2018-07-05T20:12:52.773Z,83.72
2018-07-05T20:16:07.190Z,83.61
2018-07-05T20:19:21.560Z,83.01
2018-07-05T20:22:35.894Z,83.48
2018-07-05T20:25:51.170Z,85.58
2018-07-05T20:29:05.502Z,85.28
2018-07-05T20:32:19.781Z,84.93
2018-07-05T20:35:34.229Z,85.44
2018-07-05T20:38:49.518Z,85.25
2018-07-05T20:42:04.802Z,84.92
2018-07-05T20:45:28.966Z,85.43
2018-07-05T20:48:43.372Z,84.92
2018-07-05T20:51:58.640Z,84.79
2018-07-05T20:55:13.045Z,84.69
2018-07-05T20:58:27.516Z,84.42
2018-07-05T21:01:47.687Z,84.42
2018-07-05T21:05:04.125Z,84.96
2018-07-05T21:08:25.854Z,84.17
2018-07-05T21:11:41.114Z,83.85
2018-07-05T21:14:56.480Z,84.49
2018-07-05T21:18:11.983Z,84.36
2018-07-05T21:21:27.457Z,84.33
2018-07-05T21:24:41.724Z,84.85
2018-07-05T21:28:00.122Z,85.09
2018-07-05T21:31:14.556Z,84.73
2018-07-05T21:34:29.850Z,84.91
2018-07-05T21:37:45.226Z,84.45
2018-07-05T21:40:59.496Z,83.53
2018-07-05T21:44:13.688Z,83.11
2018-07-05T21:47:27.993Z,82.00
2018-07-05T21:50:43.177Z,81.72
2018-07-05T21:53:57.630Z,81.43
2018-07-05T21:57:16.429Z,80.79
2018-07-05T22:00:36.530Z,81.01
2018-07-05T22:03:51.841Z,81.61
2018-07-05T22:07:06.099Z,81.44
2018-07-05T22:10:20.269Z,81.06
2018-07-05T22:13:35.628Z,81.44
2018-07-05T22:16:56.581Z,81.81
2018-07-05T22:20:16.550Z,81.76
2018-07-05T22:23:37.646Z,81.94
2018-07-05T22:26:52.084Z,82.45
2018-07-05T22:30:17.045Z,83.47
2018-07-05T22:33:31.331Z,84.10
2018-07-05T22:36:45.646Z,84.12
2018-07-05T22:40:01.021Z,84.31
2018-07-05T22:43:15.366Z,84.06
2018-07-05T22:46:30.547Z,84.40
2018-07-05T22:49:47.042Z,84.72
2018-07-05T22:53:03.443Z,85.70
2018-07-05T22:56:17.673Z,86.35
2018-07-05T22:59:33.001Z,87.16
2018-07-05T23:02:49.186Z,87.08
2018-07-05T23:06:04.515Z,86.94
2018-07-05T23:09:19.753Z,86.20
2018-07-05T23:12:38.577Z,86.60
2018-07-05T23:15:59.630Z,87.38
2018-07-05T23:19:19.850Z,87.29
2018-07-05T23:22:38.569Z,88.09
2018-07-05T23:25:58.599Z,88.12
2018-07-05T23:29:14.007Z,87.76
2018-07-05T23:32:30.407Z,87.53
2018-07-05T23:35:51.505Z,88.04
2018-07-05T23:39:12.874Z,88.17
2018-07-05T23:42:27.317Z,88.19
2018-07-05T23:45:45.295Z,88.37
2018-07-05T23:49:01.552Z,87.72
2018-07-05T23:52:19.231Z,88.22
2018-07-05T23:55:33.594Z,87.80
2018-07-05T23:58:52.169Z,88.35
